sensor_id;sensor_type;location;lat;lon;timestamp;temperature;humidity
52643;DHT22;38531;53.296;6.614;2023-05-10T00:02:21;13.40;99.90
52643;DHT22;38531;53.296;6.614;2023-05-10T00:04:47;13.30;99.90
52643;DHT22;38531;53.296;6.614;2023-05-10T00:07:12;13.20;99.90
52643;DHT22;38531;53.296;6.614;2023-05-10T00:09:38;13.20;99.90
52643;DHT22;38531;53.296;6.614;2023-05-10T00:12:04;13.10;99.90
52643;DHT22;38531;53.296;6.614;2023-05-10T00:14:30;13.10;99.90
52643;DHT22;38531;53.296;6.614;2023-05-10T00:16:55;13.10;99.90
52643;DHT22;38531;53.296;6.614;2023-05-10T00:19:21;13.00;99.90
52643;DHT22;38531;53.296;6.614;2023-05-10T00:21:47;13.00;99.90
52643;DHT22;38531;53.296;6.614;2023-05-10T00:24:13;13.00;99.90
52643;DHT22;38531;53.296;6.614;2023-05-10T00:26:38;13.00;99.90
52643;DHT22;38531;53.296;6.614;2023-05-10T00:29:05;12.90;99.90
52643;DHT22;38531;53.296;6.614;2023-05-10T00:31:31;12.90;99.90
52643;DHT22;38531;53.296;6.614;2023-05-10T00:33:56;12.90;99.90
52643;DHT22;38531;53.296;6.614;2023-05-10T00:36:22;12.80;99.90
52643;DHT22;38531;53.296;6.614;2023-05-10T00:38:48;12.80;99.90
52643;DHT22;38531;53.296;6.614;2023-05-10T00:41:13;13.00;99.90
52643;DHT22;38531;53.296;6.614;2023-05-10T00:43:39;12.80;99.90
52643;DHT22;38531;53.296;6.614;2023-05-10T00:46:05;12.80;99.90
52643;DHT22;38531;53.296;6.614;2023-05-10T00:48:31;12.90;99.90
52643;DHT22;38531;53.296;6.614;2023-05-10T00:50:57;12.70;99.90
52643;DHT22;38531;53.296;6.614;2023-05-10T00:53:23;12.70;99.90
52643;DHT22;38531;53.296;6.614;2023-05-10T00:55:49;12.70;99.90
52643;DHT22;38531;53.296;6.614;2023-05-10T00:58:16;12.70;99.90
52643;DHT22;38531;53.296;6.614;2023-05-10T01:00:43;12.70;99.90
52643;DHT22;38531;53.296;6.614;2023-05-10T01:03:11;12.70;99.90
52643;DHT22;38531;53.296;6.614;2023-05-10T01:05:37;12.70;99.90
52643;DHT22;38531;53.296;6.614;2023-05-10T01:08:03;12.60;99.90
52643;DHT22;38531;53.296;6.614;2023-05-10T01:10:30;12.60;99.90
52643;DHT22;38531;53.296;6.614;2023-05-10T01:12:56;12.50;99.90
52643;DHT22;38531;53.296;6.614;2023-05-10T01:15:22;12.60;99.90
52643;DHT22;38531;53.296;6.614;2023-05-10T01:17:48;12.60;99.90
52643;DHT22;38531;53.296;6.614;2023-05-10T01:20:15;12.60;99.90
52643;DHT22;38531;53.296;6.614;2023-05-10T01:34:16;12.50;99.90
52643;DHT22;38531;53.296;6.614;2023-05-10T01:37:25;12.50;99.90
52643;DHT22;38531;53.296;6.614;2023-05-10T01:39:47;12.50;99.90
52643;DHT22;38531;53.296;6.614;2023-05-10T01:42:26;12.50;99.90
52643;DHT22;38531;53.296;6.614;2023-05-10T01:45:00;12.40;99.90
52643;DHT22;38531;53.296;6.614;2023-05-10T01:50:30;12.40;99.90
52643;DHT22;38531;53.296;6.614;2023-05-10T01:52:58;12.70;99.90
52643;DHT22;38531;53.296;6.614;2023-05-10T01:55:29;12.40;99.90
52643;DHT22;38531;53.296;6.614;2023-05-10T01:58:05;12.40;99.90
52643;DHT22;38531;53.296;6.614;2023-05-10T02:00:32;12.30;99.90
52643;DHT22;38531;53.296;6.614;2023-05-10T02:03:00;12.20;99.90
52643;DHT22;38531;53.296;6.614;2023-05-10T02:05:29;12.30;99.90
52643;DHT22;38531;53.296;6.614;2023-05-10T02:07:55;12.50;99.90
52643;DHT22;38531;53.296;6.614;2023-05-10T02:10:22;12.30;99.90
52643;DHT22;38531;53.296;6.614;2023-05-10T02:12:48;12.30;99.90
52643;DHT22;38531;53.296;6.614;2023-05-10T02:15:22;12.30;99.90
52643;DHT22;38531;53.296;6.614;2023-05-10T02:17:53;12.30;99.90
52643;DHT22;38531;53.296;6.614;2023-05-10T02:20:20;12.30;99.90
52643;DHT22;38531;53.296;6.614;2023-05-10T02:22:47;12.30;99.90
52643;DHT22;38531;53.296;6.614;2023-05-10T02:25:15;12.30;99.90
52643;DHT22;38531;53.296;6.614;2023-05-10T02:27:43;12.30;99.90
52643;DHT22;38531;53.296;6.614;2023-05-10T02:30:10;12.30;99.90
52643;DHT22;38531;53.296;6.614;2023-05-10T02:32:37;12.30;99.90
52643;DHT22;38531;53.296;6.614;2023-05-10T02:35:05;12.30;99.90
52643;DHT22;38531;53.296;6.614;2023-05-10T02:37:33;12.30;99.90
52643;DHT22;38531;53.296;6.614;2023-05-10T02:40:00;12.20;99.90
52643;DHT22;38531;53.296;6.614;2023-05-10T02:42:32;12.30;99.90
52643;DHT22;38531;53.296;6.614;2023-05-10T02:45:05;12.30;99.90
52643;DHT22;38531;53.296;6.614;2023-05-10T02:47:32;12.20;99.90
52643;DHT22;38531;53.296;6.614;2023-05-10T02:49:59;12.20;99.90
52643;DHT22;38531;53.296;6.614;2023-05-10T02:52:27;12.50;99.90
52643;DHT22;38531;53.296;6.614;2023-05-10T02:55:01;12.20;99.90
52643;DHT22;38531;53.296;6.614;2023-05-10T02:57:35;12.20;99.90
52643;DHT22;38531;53.296;6.614;2023-05-10T03:00:04;12.20;99.90
52643;DHT22;38531;53.296;6.614;2023-05-10T03:02:30;12.20;99.90
52643;DHT22;38531;53.296;6.614;2023-05-10T03:04:56;12.10;99.90
52643;DHT22;38531;53.296;6.614;2023-05-10T03:07:22;12.20;99.90
52643;DHT22;38531;53.296;6.614;2023-05-10T03:09:50;12.20;99.90
52643;DHT22;38531;53.296;6.614;2023-05-10T03:12:47;12.20;99.90
52643;DHT22;38531;53.296;6.614;2023-05-10T03:18:09;12.20;99.90
52643;DHT22;38531;53.296;6.614;2023-05-10T03:20:38;12.20;99.90
52643;DHT22;38531;53.296;6.614;2023-05-10T03:23:21;12.20;99.90
52643;DHT22;38531;53.296;6.614;2023-05-10T03:25:48;12.20;99.90
52643;DHT22;38531;53.296;6.614;2023-05-10T03:28:16;12.20;99.90
52643;DHT22;38531;53.296;6.614;2023-05-10T03:30:46;12.20;99.90
52643;DHT22;38531;53.296;6.614;2023-05-10T03:33:12;12.20;99.90
52643;DHT22;38531;53.296;6.614;2023-05-10T03:35:38;12.20;99.90
52643;DHT22;38531;53.296;6.614;2023-05-10T03:38:05;12.20;99.90
52643;DHT22;38531;53.296;6.614;2023-05-10T03:40:30;12.20;99.90
52643;DHT22;38531;53.296;6.614;2023-05-10T03:42:58;12.20;99.90
52643;DHT22;38531;53.296;6.614;2023-05-10T03:45:24;12.20;99.90
52643;DHT22;38531;53.296;6.614;2023-05-10T03:47:50;12.20;99.90
52643;DHT22;38531;53.296;6.614;2023-05-10T03:50:16;12.20;99.90
52643;DHT22;38531;53.296;6.614;2023-05-10T03:52:42;12.20;99.90
52643;DHT22;38531;53.296;6.614;2023-05-10T03:55:08;12.20;99.90
52643;DHT22;38531;53.296;6.614;2023-05-10T03:57:34;12.20;99.90
52643;DHT22;38531;53.296;6.614;2023-05-10T03:59:59;12.10;99.90
52643;DHT22;38531;53.296;6.614;2023-05-10T04:02:25;12.10;99.90
52643;DHT22;38531;53.296;6.614;2023-05-10T04:04:51;12.20;99.90
52643;DHT22;38531;53.296;6.614;2023-05-10T04:07:17;12.20;99.90
52643;DHT22;38531;53.296;6.614;2023-05-10T04:09:43;12.20;99.90
52643;DHT22;38531;53.296;6.614;2023-05-10T04:15:50;12.10;99.90
52643;DHT22;38531;53.296;6.614;2023-05-10T04:18:15;12.10;99.90
52643;DHT22;38531;53.296;6.614;2023-05-10T04:20:42;12.10;99.90
52643;DHT22;38531;53.296;6.614;2023-05-10T04:23:08;12.10;99.90
52643;DHT22;38531;53.296;6.614;2023-05-10T04:25:34;12.10;99.90
52643;DHT22;38531;53.296;6.614;2023-05-10T04:28:00;12.10;99.90
52643;DHT22;38531;53.296;6.614;2023-05-10T04:30:26;12.00;99.90
52643;DHT22;38531;53.296;6.614;2023-05-10T04:32:53;12.00;99.90
52643;DHT22;38531;53.296;6.614;2023-05-10T04:35:19;12.10;99.90
52643;DHT22;38531;53.296;6.614;2023-05-10T04:37:45;12.20;99.90
52643;DHT22;38531;53.296;6.614;2023-05-10T04:40:11;12.10;99.90
52643;DHT22;38531;53.296;6.614;2023-05-10T04:42:37;12.10;99.90
52643;DHT22;38531;53.296;6.614;2023-05-10T04:45:05;12.00;99.90
52643;DHT22;38531;53.296;6.614;2023-05-10T04:47:31;12.10;99.90
52643;DHT22;38531;53.296;6.614;2023-05-10T04:49:58;12.10;99.90
52643;DHT22;38531;53.296;6.614;2023-05-10T04:52:24;12.10;99.90
52643;DHT22;38531;53.296;6.614;2023-05-10T04:54:51;12.10;99.90
52643;DHT22;38531;53.296;6.614;2023-05-10T05:01:08;12.00;99.90
52643;DHT22;38531;53.296;6.614;2023-05-10T05:03:34;12.10;99.90
52643;DHT22;38531;53.296;6.614;2023-05-10T05:06:00;12.20;99.90
52643;DHT22;38531;53.296;6.614;2023-05-10T05:08:26;12.30;99.90
52643;DHT22;38531;53.296;6.614;2023-05-10T05:10:52;12.20;99.90
52643;DHT22;38531;53.296;6.614;2023-05-10T05:13:18;12.20;99.90
52643;DHT22;38531;53.296;6.614;2023-05-10T05:15:44;12.20;99.90
52643;DHT22;38531;53.296;6.614;2023-05-10T05:18:10;12.20;99.90
52643;DHT22;38531;53.296;6.614;2023-05-10T05:20:35;12.20;99.90
52643;DHT22;38531;53.296;6.614;2023-05-10T05:23:01;12.20;99.90
52643;DHT22;38531;53.296;6.614;2023-05-10T05:25:27;12.20;99.90
52643;DHT22;38531;53.296;6.614;2023-05-10T05:27:53;12.20;99.90
52643;DHT22;38531;53.296;6.614;2023-05-10T05:30:19;12.20;99.90
52643;DHT22;38531;53.296;6.614;2023-05-10T05:32:44;12.20;99.90
52643;DHT22;38531;53.296;6.614;2023-05-10T05:35:12;12.20;99.90
52643;DHT22;38531;53.296;6.614;2023-05-10T05:37:38;12.10;99.90
52643;DHT22;38531;53.296;6.614;2023-05-10T05:40:04;12.30;99.90
52643;DHT22;38531;53.296;6.614;2023-05-10T05:42:31;12.20;99.90
52643;DHT22;38531;53.296;6.614;2023-05-10T05:44:56;12.30;99.90
52643;DHT22;38531;53.296;6.614;2023-05-10T05:47:22;12.30;99.90
52643;DHT22;38531;53.296;6.614;2023-05-10T05:49:50;12.30;99.90
52643;DHT22;38531;53.296;6.614;2023-05-10T05:52:18;12.40;99.90
52643;DHT22;38531;53.296;6.614;2023-05-10T05:54:44;12.30;99.90
52643;DHT22;38531;53.296;6.614;2023-05-10T06:00:51;12.30;99.90
52643;DHT22;38531;53.296;6.614;2023-05-10T06:03:23;12.40;99.90
52643;DHT22;38531;53.296;6.614;2023-05-10T06:05:49;12.30;99.90
52643;DHT22;38531;53.296;6.614;2023-05-10T06:08:14;12.40;99.90
52643;DHT22;38531;53.296;6.614;2023-05-10T06:10:40;12.40;99.90
52643;DHT22;38531;53.296;6.614;2023-05-10T06:13:06;12.30;99.90
52643;DHT22;38531;53.296;6.614;2023-05-10T06:15:32;12.60;99.90
52643;DHT22;38531;53.296;6.614;2023-05-10T06:17:58;12.40;99.90
52643;DHT22;38531;53.296;6.614;2023-05-10T06:20:23;12.30;99.90
52643;DHT22;38531;53.296;6.614;2023-05-10T06:22:49;12.40;99.90
52643;DHT22;38531;53.296;6.614;2023-05-10T06:25:15;12.30;99.90
52643;DHT22;38531;53.296;6.614;2023-05-10T06:27:43;12.30;99.90
52643;DHT22;38531;53.296;6.614;2023-05-10T06:30:09;12.30;99.90
52643;DHT22;38531;53.296;6.614;2023-05-10T06:32:35;12.30;99.90
52643;DHT22;38531;53.296;6.614;2023-05-10T06:35:01;12.30;99.90
52643;DHT22;38531;53.296;6.614;2023-05-10T06:37:27;12.30;99.90
52643;DHT22;38531;53.296;6.614;2023-05-10T06:39:52;12.20;99.90
52643;DHT22;38531;53.296;6.614;2023-05-10T06:42:18;12.30;99.90
52643;DHT22;38531;53.296;6.614;2023-05-10T06:44:44;12.20;99.90
52643;DHT22;38531;53.296;6.614;2023-05-10T06:47:09;12.20;99.90
52643;DHT22;38531;53.296;6.614;2023-05-10T06:49:35;12.20;99.90
52643;DHT22;38531;53.296;6.614;2023-05-10T06:52:02;12.10;99.90
52643;DHT22;38531;53.296;6.614;2023-05-10T06:54:28;12.10;99.90
52643;DHT22;38531;53.296;6.614;2023-05-10T06:56:53;12.20;99.90
52643;DHT22;38531;53.296;6.614;2023-05-10T06:59:19;12.20;99.90
52643;DHT22;38531;53.296;6.614;2023-05-10T07:01:47;12.10;99.90
52643;DHT22;38531;53.296;6.614;2023-05-10T07:04:12;12.10;99.90
52643;DHT22;38531;53.296;6.614;2023-05-10T07:06:39;12.10;99.90
52643;DHT22;38531;53.296;6.614;2023-05-10T07:09:04;12.10;99.90
52643;DHT22;38531;53.296;6.614;2023-05-10T07:11:30;12.10;99.90
52643;DHT22;38531;53.296;6.614;2023-05-10T07:13:56;12.10;99.90
52643;DHT22;38531;53.296;6.614;2023-05-10T07:16:22;12.10;99.90
52643;DHT22;38531;53.296;6.614;2023-05-10T07:18:47;12.10;99.90
52643;DHT22;38531;53.296;6.614;2023-05-10T07:21:13;12.10;99.90
52643;DHT22;38531;53.296;6.614;2023-05-10T07:23:39;11.70;99.90
52643;DHT22;38531;53.296;6.614;2023-05-10T07:26:04;12.10;99.90
52643;DHT22;38531;53.296;6.614;2023-05-10T07:28:30;12.00;99.90
52643;DHT22;38531;53.296;6.614;2023-05-10T07:30:56;12.10;99.90
52643;DHT22;38531;53.296;6.614;2023-05-10T07:33:21;12.10;99.90
52643;DHT22;38531;53.296;6.614;2023-05-10T07:35:47;12.20;99.90
52643;DHT22;38531;53.296;6.614;2023-05-10T07:38:13;12.10;99.90
52643;DHT22;38531;53.296;6.614;2023-05-10T07:40:39;12.10;99.90
52643;DHT22;38531;53.296;6.614;2023-05-10T07:43:05;12.20;99.90
52643;DHT22;38531;53.296;6.614;2023-05-10T07:45:31;12.20;99.90
52643;DHT22;38531;53.296;6.614;2023-05-10T07:47:57;12.30;99.90
52643;DHT22;38531;53.296;6.614;2023-05-10T07:50:22;12.30;99.90
52643;DHT22;38531;53.296;6.614;2023-05-10T07:52:48;12.20;99.90
52643;DHT22;38531;53.296;6.614;2023-05-10T07:55:14;12.30;99.90
52643;DHT22;38531;53.296;6.614;2023-05-10T07:57:39;12.40;99.90
52643;DHT22;38531;53.296;6.614;2023-05-10T08:00:06;12.20;99.90
52643;DHT22;38531;53.296;6.614;2023-05-10T08:02:34;12.30;99.90
52643;DHT22;38531;53.296;6.614;2023-05-10T08:05:00;12.30;99.90
52643;DHT22;38531;53.296;6.614;2023-05-10T08:07:26;12.30;99.90
52643;DHT22;38531;53.296;6.614;2023-05-10T08:09:51;12.40;99.90
52643;DHT22;38531;53.296;6.614;2023-05-10T08:12:17;12.40;99.90
52643;DHT22;38531;53.296;6.614;2023-05-10T08:14:43;12.40;99.90
52643;DHT22;38531;53.296;6.614;2023-05-10T08:17:08;12.50;99.90
52643;DHT22;38531;53.296;6.614;2023-05-10T08:19:34;12.50;99.90
52643;DHT22;38531;53.296;6.614;2023-05-10T08:22:00;12.50;99.90
52643;DHT22;38531;53.296;6.614;2023-05-10T08:24:25;12.50;99.90
52643;DHT22;38531;53.296;6.614;2023-05-10T08:26:51;12.50;99.90
52643;DHT22;38531;53.296;6.614;2023-05-10T08:29:17;12.50;99.90
52643;DHT22;38531;53.296;6.614;2023-05-10T08:31:43;12.50;99.90
52643;DHT22;38531;53.296;6.614;2023-05-10T08:34:08;12.50;99.90
52643;DHT22;38531;53.296;6.614;2023-05-10T08:36:34;12.50;99.90
52643;DHT22;38531;53.296;6.614;2023-05-10T08:39:00;12.60;99.90
52643;DHT22;38531;53.296;6.614;2023-05-10T08:41:26;12.60;99.90
52643;DHT22;38531;53.296;6.614;2023-05-10T08:43:55;12.60;99.90
52643;DHT22;38531;53.296;6.614;2023-05-10T08:46:22;12.70;99.90
52643;DHT22;38531;53.296;6.614;2023-05-10T08:48:50;12.60;99.90
52643;DHT22;38531;53.296;6.614;2023-05-10T08:51:22;12.60;99.90
52643;DHT22;38531;53.296;6.614;2023-05-10T08:53:49;12.60;99.90
52643;DHT22;38531;53.296;6.614;2023-05-10T08:56:15;12.60;99.90
52643;DHT22;38531;53.296;6.614;2023-05-10T08:58:41;12.60;99.90
52643;DHT22;38531;53.296;6.614;2023-05-10T09:01:08;12.60;99.90
52643;DHT22;38531;53.296;6.614;2023-05-10T09:03:35;12.60;99.90
52643;DHT22;38531;53.296;6.614;2023-05-10T09:06:03;12.70;99.90
52643;DHT22;38531;53.296;6.614;2023-05-10T09:08:30;12.70;99.90
52643;DHT22;38531;53.296;6.614;2023-05-10T09:10:56;12.70;99.90
52643;DHT22;38531;53.296;6.614;2023-05-10T09:13:23;12.80;99.90
52643;DHT22;38531;53.296;6.614;2023-05-10T09:15:49;12.80;99.90
52643;DHT22;38531;53.296;6.614;2023-05-10T09:18:16;12.90;99.90
52643;DHT22;38531;53.296;6.614;2023-05-10T09:20:41;12.90;99.90
52643;DHT22;38531;53.296;6.614;2023-05-10T09:23:07;13.00;99.90
52643;DHT22;38531;53.296;6.614;2023-05-10T09:25:33;13.10;99.90
52643;DHT22;38531;53.296;6.614;2023-05-10T09:27:59;13.10;99.90
52643;DHT22;38531;53.296;6.614;2023-05-10T09:30:30;13.20;99.90
52643;DHT22;38531;53.296;6.614;2023-05-10T09:32:57;13.30;99.90
52643;DHT22;38531;53.296;6.614;2023-05-10T09:35:25;13.20;99.90
52643;DHT22;38531;53.296;6.614;2023-05-10T09:37:54;13.30;99.90
52643;DHT22;38531;53.296;6.614;2023-05-10T09:40:22;13.40;99.90
52643;DHT22;38531;53.296;6.614;2023-05-10T09:42:59;13.40;99.90
52643;DHT22;38531;53.296;6.614;2023-05-10T09:45:26;13.40;99.90
52643;DHT22;38531;53.296;6.614;2023-05-10T09:47:52;13.40;99.90
52643;DHT22;38531;53.296;6.614;2023-05-10T09:50:19;13.40;99.90
52643;DHT22;38531;53.296;6.614;2023-05-10T09:52:49;13.40;99.90
52643;DHT22;38531;53.296;6.614;2023-05-10T09:55:17;13.40;99.90
52643;DHT22;38531;53.296;6.614;2023-05-10T09:57:44;13.40;99.90
52643;DHT22;38531;53.296;6.614;2023-05-10T10:00:10;13.50;99.90
52643;DHT22;38531;53.296;6.614;2023-05-10T10:02:35;13.50;99.90
52643;DHT22;38531;53.296;6.614;2023-05-10T10:05:02;13.60;99.90
52643;DHT22;38531;53.296;6.614;2023-05-10T10:07:29;13.60;99.90
52643;DHT22;38531;53.296;6.614;2023-05-10T10:09:55;13.80;99.90
52643;DHT22;38531;53.296;6.614;2023-05-10T10:12:20;13.70;99.90
52643;DHT22;38531;53.296;6.614;2023-05-10T10:14:47;13.70;99.90
52643;DHT22;38531;53.296;6.614;2023-05-10T10:17:13;13.70;99.90
52643;DHT22;38531;53.296;6.614;2023-05-10T10:19:40;13.70;99.90
52643;DHT22;38531;53.296;6.614;2023-05-10T10:22:06;13.80;99.90
52643;DHT22;38531;53.296;6.614;2023-05-10T10:24:33;13.90;99.90
52643;DHT22;38531;53.296;6.614;2023-05-10T10:27:15;14.00;99.90
52643;DHT22;38531;53.296;6.614;2023-05-10T10:29:58;14.10;99.90
52643;DHT22;38531;53.296;6.614;2023-05-10T10:35:11;14.30;99.90
52643;DHT22;38531;53.296;6.614;2023-05-10T10:37:47;14.40;99.90
52643;DHT22;38531;53.296;6.614;2023-05-10T10:40:27;14.50;99.90
52643;DHT22;38531;53.296;6.614;2023-05-10T10:42:54;14.50;99.90
52643;DHT22;38531;53.296;6.614;2023-05-10T10:45:20;14.50;99.90
52643;DHT22;38531;53.296;6.614;2023-05-10T10:47:46;14.50;99.90
52643;DHT22;38531;53.296;6.614;2023-05-10T10:50:12;14.60;99.90
52643;DHT22;38531;53.296;6.614;2023-05-10T10:52:40;14.50;99.90
52643;DHT22;38531;53.296;6.614;2023-05-10T10:55:18;14.50;99.90
52643;DHT22;38531;53.296;6.614;2023-05-10T10:57:49;14.50;99.90
52643;DHT22;38531;53.296;6.614;2023-05-10T11:00:20;14.60;99.90
52643;DHT22;38531;53.296;6.614;2023-05-10T11:02:51;14.60;99.90
52643;DHT22;38531;53.296;6.614;2023-05-10T11:08:20;14.70;99.90
52643;DHT22;38531;53.296;6.614;2023-05-10T11:13:33;14.80;99.90
52643;DHT22;38531;53.296;6.614;2023-05-10T11:16:13;14.90;99.90
52643;DHT22;38531;53.296;6.614;2023-05-10T11:18:39;14.80;99.90
52643;DHT22;38531;53.296;6.614;2023-05-10T11:21:05;14.80;99.90
52643;DHT22;38531;53.296;6.614;2023-05-10T11:26:11;14.80;99.90
52643;DHT22;38531;53.296;6.614;2023-05-10T11:28:44;14.80;99.90
52643;DHT22;38531;53.296;6.614;2023-05-10T11:31:10;14.90;99.90
52643;DHT22;38531;53.296;6.614;2023-05-10T11:33:49;15.00;99.90
52643;DHT22;38531;53.296;6.614;2023-05-10T11:36:17;15.00;99.90
52643;DHT22;38531;53.296;6.614;2023-05-10T11:38:43;15.10;99.90
52643;DHT22;38531;53.296;6.614;2023-05-10T11:41:10;15.20;99.90
52643;DHT22;38531;53.296;6.614;2023-05-10T11:43:37;15.30;99.90
52643;DHT22;38531;53.296;6.614;2023-05-10T11:46:09;15.40;99.90
52643;DHT22;38531;53.296;6.614;2023-05-10T11:48:36;15.40;99.90
52643;DHT22;38531;53.296;6.614;2023-05-10T11:51:02;15.40;99.90
52643;DHT22;38531;53.296;6.614;2023-05-10T11:53:30;15.50;99.90
52643;DHT22;38531;53.296;6.614;2023-05-10T11:56:06;15.50;99.90
52643;DHT22;38531;53.296;6.614;2023-05-10T11:58:32;15.60;99.90
52643;DHT22;38531;53.296;6.614;2023-05-10T12:01:02;15.60;99.90
52643;DHT22;38531;53.296;6.614;2023-05-10T12:03:28;15.70;99.90
52643;DHT22;38531;53.296;6.614;2023-05-10T12:05:55;15.80;99.90
52643;DHT22;38531;53.296;6.614;2023-05-10T12:08:25;16.00;99.90
52643;DHT22;38531;53.296;6.614;2023-05-10T12:10:53;16.00;99.90
52643;DHT22;38531;53.296;6.614;2023-05-10T12:13:20;16.00;99.90
52643;DHT22;38531;53.296;6.614;2023-05-10T12:15:46;16.10;99.90
52643;DHT22;38531;53.296;6.614;2023-05-10T12:18:13;16.10;99.90
52643;DHT22;38531;53.296;6.614;2023-05-10T12:20:40;16.00;99.90
52643;DHT22;38531;53.296;6.614;2023-05-10T12:23:09;15.80;99.90
52643;DHT22;38531;53.296;6.614;2023-05-10T12:25:38;15.80;99.90
52643;DHT22;38531;53.296;6.614;2023-05-10T12:28:08;15.70;99.90
52643;DHT22;38531;53.296;6.614;2023-05-10T12:30:35;15.70;99.90
52643;DHT22;38531;53.296;6.614;2023-05-10T12:33:09;15.50;99.90
52643;DHT22;38531;53.296;6.614;2023-05-10T12:35:46;15.50;99.90
52643;DHT22;38531;53.296;6.614;2023-05-10T12:41:02;15.50;99.90
52643;DHT22;38531;53.296;6.614;2023-05-10T12:43:29;15.40;99.90
52643;DHT22;38531;53.296;6.614;2023-05-10T12:45:55;15.40;99.90
52643;DHT22;38531;53.296;6.614;2023-05-10T12:48:21;15.40;99.90
52643;DHT22;38531;53.296;6.614;2023-05-10T12:50:47;15.40;99.90
52643;DHT22;38531;53.296;6.614;2023-05-10T12:53:16;15.40;99.90
52643;DHT22;38531;53.296;6.614;2023-05-10T12:55:43;15.50;99.90
52643;DHT22;38531;53.296;6.614;2023-05-10T12:58:09;15.50;99.90
52643;DHT22;38531;53.296;6.614;2023-05-10T13:00:35;15.50;99.90
52643;DHT22;38531;53.296;6.614;2023-05-10T13:03:06;15.50;99.90
52643;DHT22;38531;53.296;6.614;2023-05-10T13:05:32;15.50;99.90
52643;DHT22;38531;53.296;6.614;2023-05-10T13:07:58;15.50;99.90
52643;DHT22;38531;53.296;6.614;2023-05-10T13:10:24;15.60;99.90
52643;DHT22;38531;53.296;6.614;2023-05-10T13:12:50;15.50;99.90
52643;DHT22;38531;53.296;6.614;2023-05-10T13:15:16;15.60;99.90
52643;DHT22;38531;53.296;6.614;2023-05-10T13:17:42;15.50;99.90
52643;DHT22;38531;53.296;6.614;2023-05-10T13:20:08;15.50;99.90
52643;DHT22;38531;53.296;6.614;2023-05-10T13:22:37;15.60;99.90
52643;DHT22;38531;53.296;6.614;2023-05-10T13:25:03;15.50;99.90
52643;DHT22;38531;53.296;6.614;2023-05-10T13:27:29;15.50;99.90
52643;DHT22;38531;53.296;6.614;2023-05-10T13:29:54;15.60;99.90
52643;DHT22;38531;53.296;6.614;2023-05-10T13:32:20;15.60;99.90
52643;DHT22;38531;53.296;6.614;2023-05-10T13:34:46;15.70;99.90
52643;DHT22;38531;53.296;6.614;2023-05-10T13:37:12;15.80;99.90
52643;DHT22;38531;53.296;6.614;2023-05-10T13:39:37;15.80;99.90
52643;DHT22;38531;53.296;6.614;2023-05-10T13:42:04;16.00;99.90
52643;DHT22;38531;53.296;6.614;2023-05-10T13:44:29;16.00;99.90
52643;DHT22;38531;53.296;6.614;2023-05-10T13:46:56;16.10;99.90
52643;DHT22;38531;53.296;6.614;2023-05-10T13:49:22;16.30;99.90
52643;DHT22;38531;53.296;6.614;2023-05-10T13:51:47;16.40;99.90
52643;DHT22;38531;53.296;6.614;2023-05-10T13:54:13;16.40;99.90
52643;DHT22;38531;53.296;6.614;2023-05-10T13:56:39;16.40;99.90
52643;DHT22;38531;53.296;6.614;2023-05-10T13:59:06;16.40;99.90
52643;DHT22;38531;53.296;6.614;2023-05-10T14:01:33;16.50;99.90
52643;DHT22;38531;53.296;6.614;2023-05-10T14:03:59;16.50;99.90
52643;DHT22;38531;53.296;6.614;2023-05-10T14:06:25;16.50;99.90
52643;DHT22;38531;53.296;6.614;2023-05-10T14:08:52;16.50;99.90
52643;DHT22;38531;53.296;6.614;2023-05-10T14:11:19;16.60;99.90
52643;DHT22;38531;53.296;6.614;2023-05-10T14:13:45;16.70;99.90
52643;DHT22;38531;53.296;6.614;2023-05-10T14:16:10;16.70;99.90
52643;DHT22;38531;53.296;6.614;2023-05-10T14:18:37;16.70;99.90
52643;DHT22;38531;53.296;6.614;2023-05-10T14:21:03;16.60;99.90
52643;DHT22;38531;53.296;6.614;2023-05-10T14:23:29;16.60;99.90
52643;DHT22;38531;53.296;6.614;2023-05-10T14:25:55;16.60;99.90
52643;DHT22;38531;53.296;6.614;2023-05-10T14:28:21;16.50;99.90
52643;DHT22;38531;53.296;6.614;2023-05-10T14:30:48;16.40;99.90
52643;DHT22;38531;53.296;6.614;2023-05-10T14:33:13;16.40;99.90
52643;DHT22;38531;53.296;6.614;2023-05-10T14:35:39;16.40;99.90
52643;DHT22;38531;53.296;6.614;2023-05-10T14:38:05;16.30;99.90
52643;DHT22;38531;53.296;6.614;2023-05-10T14:40:30;16.20;99.90
52643;DHT22;38531;53.296;6.614;2023-05-10T14:42:56;16.10;99.90
52643;DHT22;38531;53.296;6.614;2023-05-10T14:45:22;16.20;99.90
52643;DHT22;38531;53.296;6.614;2023-05-10T14:47:49;16.10;99.90
52643;DHT22;38531;53.296;6.614;2023-05-10T14:50:15;16.20;99.90
52643;DHT22;38531;53.296;6.614;2023-05-10T14:52:42;16.20;99.90
52643;DHT22;38531;53.296;6.614;2023-05-10T14:55:09;16.40;99.90
52643;DHT22;38531;53.296;6.614;2023-05-10T14:57:34;16.30;99.90
52643;DHT22;38531;53.296;6.614;2023-05-10T15:00:00;16.50;99.90
52643;DHT22;38531;53.296;6.614;2023-05-10T15:02:26;16.80;99.90
52643;DHT22;38531;53.296;6.614;2023-05-10T15:04:52;17.20;99.90
52643;DHT22;38531;53.296;6.614;2023-05-10T15:07:17;17.40;99.90
52643;DHT22;38531;53.296;6.614;2023-05-10T15:09:44;17.50;99.90
52643;DHT22;38531;53.296;6.614;2023-05-10T15:12:10;17.40;99.90
52643;DHT22;38531;53.296;6.614;2023-05-10T15:14:36;17.40;99.90
52643;DHT22;38531;53.296;6.614;2023-05-10T15:17:02;17.20;99.90
52643;DHT22;38531;53.296;6.614;2023-05-10T15:19:28;17.10;99.90
52643;DHT22;38531;53.296;6.614;2023-05-10T15:21:55;17.20;99.90
52643;DHT22;38531;53.296;6.614;2023-05-10T15:24:21;17.20;99.90
52643;DHT22;38531;53.296;6.614;2023-05-10T15:26:47;17.50;99.90
52643;DHT22;38531;53.296;6.614;2023-05-10T15:29:13;17.60;99.90
52643;DHT22;38531;53.296;6.614;2023-05-10T15:31:49;17.50;99.90
52643;DHT22;38531;53.296;6.614;2023-05-10T15:34:17;17.40;99.90
52643;DHT22;38531;53.296;6.614;2023-05-10T15:36:44;17.20;99.90
52643;DHT22;38531;53.296;6.614;2023-05-10T15:39:10;17.10;99.90
52643;DHT22;38531;53.296;6.614;2023-05-10T15:41:36;17.00;99.90
52643;DHT22;38531;53.296;6.614;2023-05-10T15:44:02;17.00;99.90
52643;DHT22;38531;53.296;6.614;2023-05-10T15:46:28;16.90;99.90
52643;DHT22;38531;53.296;6.614;2023-05-10T15:48:54;16.70;99.90
52643;DHT22;38531;53.296;6.614;2023-05-10T15:51:20;16.50;99.90
52643;DHT22;38531;53.296;6.614;2023-05-10T15:53:46;16.30;99.90
52643;DHT22;38531;53.296;6.614;2023-05-10T15:56:11;16.10;99.90
52643;DHT22;38531;53.296;6.614;2023-05-10T15:58:40;16.10;99.90
52643;DHT22;38531;53.296;6.614;2023-05-10T16:01:06;16.20;99.90
52643;DHT22;38531;53.296;6.614;2023-05-10T16:03:32;15.90;99.90
52643;DHT22;38531;53.296;6.614;2023-05-10T16:05:59;15.90;99.90
52643;DHT22;38531;53.296;6.614;2023-05-10T16:08:24;15.90;99.90
52643;DHT22;38531;53.296;6.614;2023-05-10T16:10:50;16.00;99.90
52643;DHT22;38531;53.296;6.614;2023-05-10T16:13:16;15.90;99.90